KATL/ATL METAR and TAF weather

Enter ICAO airport designator
Station Type Date Time Source
KATL METAR 2019/04/21 21:52 UTC NOAA

KATL 212152Z 34012G15KT 10SM CLR 22/00 A3009 RMK AO2 SLP187 T02220000


Station Type Date Time Source
KATL Decoded METAR 2019/04/21 21:52 UTC NOAA

HARTSFIELD-JACKSON ATLANTA, GA, United States (KATL) 33-39N 84-26W
Apr 21, 2019 - 05:52 PM EDT / 2019.04.21 2152 UTC
Wind: from the NNW (340 degrees) at 14 MPH (12 KT) gusting to 17 MPH (15 KT):0
Visibility: 10 mile(s):0
Sky conditions: clear
Temperature: 72.0 F (22.2 C)
Dew Point: 32.0 F (0.0 C)
Relative Humidity: 22%
Pressure (altimeter): 30.09 in. Hg (1018 hPa)
ob: KATL 212152Z 34012G15KT 10SM CLR 22/00 A3009 RMK AO2 SLP187 T02220000
cycle: 22

Station Type Date Time Source
KATL TAF 2019/04/21 22:46 UTC NOAA

TAF
AMD KATL 212144Z 2122/2224 32010G17KT P6SM SKC
FM220000 31007KT P6SM SKC
FM220600 32004KT P6SM SKC
FM221400 33006KT P6SM SKC

Example: see airport list